createdAt,value
2023-03-28T00:00:20.897Z,723.44
2023-03-28T00:01:20.925Z,722.75
2023-03-28T00:02:20.866Z,721.89
2023-03-28T00:03:20.922Z,731.99
2023-03-28T00:04:20.903Z,727.47
2023-03-28T00:05:20.827Z,731.48
2023-03-28T00:06:20.898Z,733.88
2023-03-28T00:07:20.854Z,724.04
2023-03-28T00:08:20.796Z,724.16
2023-03-28T00:09:20.801Z,726.07
2023-03-28T00:10:20.769Z,730.25
2023-03-28T00:11:20.858Z,734.01
2023-03-28T00:12:20.757Z,730.37
2023-03-28T00:13:20.747Z,733.52
2023-03-28T00:14:20.763Z,724.96
2023-03-28T00:15:20.721Z,732.73
2023-03-28T00:16:20.745Z,733.41
2023-03-28T00:17:20.717Z,728.84
2023-03-28T00:18:20.676Z,727.75
2023-03-28T00:19:20.728Z,721.09
2023-03-28T00:20:20.662Z,723.17
2023-03-28T00:21:20.668Z,725.89
2023-03-28T00:22:20.680Z,729.85
2023-03-28T00:23:20.626Z,724.25
2023-03-28T00:24:20.608Z,733.81
2023-03-28T00:25:20.603Z,735.43
2023-03-28T00:26:20.601Z,725.88
2023-03-28T00:27:20.597Z,728.11
2023-03-28T00:28:20.574Z,734.08
2023-03-28T00:29:20.558Z,742.85
2023-03-28T00:30:20.559Z,732.93
2023-03-28T00:31:20.579Z,734.52
2023-03-28T00:32:20.521Z,736.14
2023-03-28T00:33:20.523Z,734.08
2023-03-28T00:34:20.878Z,725.16
2023-03-28T00:35:20.542Z,724.33
2023-03-28T00:36:20.483Z,724.09
2023-03-28T00:37:20.466Z,725.67
2023-03-28T00:38:20.463Z,731.75
2023-03-28T00:39:20.469Z,731.67
2023-03-28T00:40:20.437Z,720.99
2023-03-28T00:41:20.429Z,730.32
2023-03-28T00:42:20.428Z,740.17
2023-03-28T00:43:27.920Z,735.27
2023-03-28T00:44:20.385Z,738.30
2023-03-28T00:45:20.378Z,732.11
2023-03-28T00:46:20.395Z,733.63
2023-03-28T00:47:20.369Z,740.18
2023-03-28T00:48:20.341Z,735.73
2023-03-28T00:49:20.334Z,733.39
2023-03-28T00:50:20.399Z,725.73
2023-03-28T00:51:20.348Z,726.31
2023-03-28T00:52:20.314Z,732.67
2023-03-28T00:53:20.294Z,729.19
2023-03-28T00:54:20.339Z,733.71
2023-03-28T00:55:20.273Z,721.74
2023-03-28T00:56:20.282Z,727.26
2023-03-28T00:57:20.268Z,717.82
2023-03-28T00:58:20.233Z,721.90
2023-03-28T00:59:20.232Z,723.05
2023-03-28T01:00:20.221Z,720.55
2023-03-28T01:01:20.337Z,730.97
2023-03-28T01:02:20.286Z,730.16
2023-03-28T01:03:20.317Z,727.01
2023-03-28T01:04:20.179Z,731.19
2023-03-28T01:05:20.160Z,729.38
2023-03-28T01:06:20.187Z,731.21
2023-03-28T01:07:20.161Z,722.33
2023-03-28T01:08:20.139Z,720.78
2023-03-28T01:09:20.110Z,725.95
2023-03-28T01:10:20.109Z,719.71
2023-03-28T01:11:20.100Z,721.55
2023-03-28T01:12:20.115Z,719.49
2023-03-28T01:13:20.098Z,722.35
2023-03-28T01:14:20.087Z,725.47
2023-03-28T01:15:20.058Z,719.49
2023-03-28T01:16:20.084Z,721.44
2023-03-28T01:17:20.027Z,720.15
2023-03-28T01:18:20.029Z,721.60
2023-03-28T01:19:20.049Z,718.51
2023-03-28T01:20:19.986Z,724.83
2023-03-28T01:21:19.979Z,732.26
2023-03-28T01:22:19.969Z,731.04
2023-03-28T01:23:19.988Z,736.41
2023-03-28T01:24:19.950Z,731.11
2023-03-28T01:25:19.963Z,732.34
2023-03-28T01:26:19.928Z,725.65
2023-03-28T01:27:19.918Z,726.82
2023-03-28T01:28:19.917Z,733.33
2023-03-28T01:29:19.905Z,728.01
2023-03-28T01:30:19.875Z,733.01
2023-03-28T01:31:19.944Z,730.68
2023-03-28T01:32:19.857Z,727.96
2023-03-28T01:33:19.841Z,735.79
2023-03-28T01:34:19.832Z,722.68
2023-03-28T01:35:19.847Z,718.54
2023-03-28T01:36:34.419Z,718.80
2023-03-28T01:37:19.827Z,729.23
2023-03-28T01:38:19.792Z,735.73
2023-03-28T01:39:19.808Z,737.80
2023-03-28T01:40:19.777Z,734.42
2023-03-28T01:41:19.779Z,730.99
2023-03-28T01:42:19.740Z,727.36
2023-03-28T01:43:19.737Z,727.53
2023-03-28T01:44:19.737Z,725.99
2023-03-28T01:45:19.705Z,727.00
2023-03-28T01:46:19.724Z,735.72
2023-03-28T01:47:19.690Z,731.92
2023-03-28T01:48:19.678Z,731.09
2023-03-28T01:49:19.668Z,736.86
2023-03-28T01:50:19.649Z,741.06
2023-03-28T01:51:19.659Z,742.57
2023-03-28T01:52:19.622Z,750.23
2023-03-28T01:53:19.624Z,741.48
2023-03-28T01:54:19.600Z,738.49
2023-03-28T01:55:19.615Z,740.45
2023-03-28T01:56:20.399Z,740.83
2023-03-28T01:57:19.788Z,728.91
2023-03-28T01:58:19.585Z,730.06
2023-03-28T01:59:19.546Z,737.84
2023-03-28T02:00:19.558Z,736.33
2023-03-28T02:01:19.538Z,728.82
2023-03-28T02:02:19.961Z,724.74
2023-03-28T02:03:20.395Z,728.72
2023-03-28T02:04:20.586Z,724.87
2023-03-28T02:05:19.502Z,733.63
2023-03-28T02:06:19.489Z,729.21
2023-03-28T02:07:19.892Z,735.83
2023-03-28T02:08:19.536Z,737.78
2023-03-28T02:09:19.532Z,732.23
2023-03-28T02:10:19.502Z,742.16
2023-03-28T02:11:19.451Z,733.97
2023-03-28T02:12:19.405Z,731.24
2023-03-28T02:13:19.397Z,733.50
2023-03-28T02:14:19.379Z,740.84
2023-03-28T02:15:19.395Z,732.31
2023-03-28T02:16:19.391Z,726.24
2023-03-28T02:17:19.366Z,744.04
2023-03-28T02:18:19.333Z,746.23
2023-03-28T02:19:19.319Z,742.34
2023-03-28T02:20:19.327Z,735.15
2023-03-28T02:21:19.317Z,742.74
2023-03-28T02:22:19.291Z,738.28
2023-03-28T02:23:19.286Z,736.36
2023-03-28T02:24:19.284Z,739.99
2023-03-28T02:25:19.260Z,745.78
2023-03-28T02:26:19.249Z,753.13
2023-03-28T02:27:19.266Z,745.51
2023-03-28T02:28:19.235Z,738.06
2023-03-28T02:29:19.228Z,736.76
2023-03-28T02:30:19.208Z,736.17
2023-03-28T02:31:19.245Z,735.37
2023-03-28T02:32:19.176Z,738.21
2023-03-28T02:33:19.163Z,744.82
2023-03-28T02:34:19.166Z,747.56
2023-03-28T02:35:19.156Z,749.29
2023-03-28T02:36:19.144Z,743.57
2023-03-28T02:37:19.123Z,746.06
2023-03-28T02:38:19.115Z,744.17
2023-03-28T02:39:19.096Z,742.06
2023-03-28T02:40:19.099Z,744.17
2023-03-28T02:41:19.075Z,751.14
2023-03-28T02:42:19.080Z,752.68
2023-03-28T02:43:19.077Z,744.98
2023-03-28T02:44:27.059Z,734.52
2023-03-28T02:45:19.050Z,755.86
2023-03-28T02:46:19.191Z,751.05
2023-03-28T02:47:19.006Z,748.99
2023-03-28T02:48:19.012Z,751.23
2023-03-28T02:49:19.003Z,738.54
2023-03-28T02:50:19.010Z,738.16
2023-03-28T02:51:18.980Z,737.98
2023-03-28T02:52:18.965Z,728.65
2023-03-28T02:53:18.941Z,738.75
2023-03-28T02:54:18.937Z,738.34
2023-03-28T02:55:18.965Z,740.99
2023-03-28T02:56:18.945Z,749.14
2023-03-28T02:57:18.950Z,756.37
2023-03-28T02:58:18.906Z,744.81
2023-03-28T02:59:18.900Z,744.78
2023-03-28T03:00:18.882Z,749.65
2023-03-28T03:01:18.896Z,744.28
2023-03-28T03:02:18.858Z,748.69
2023-03-28T03:03:18.927Z,754.06
2023-03-28T03:04:18.858Z,744.93
2023-03-28T03:05:18.820Z,749.09
2023-03-28T03:06:18.825Z,745.74
2023-03-28T03:07:18.810Z,748.70
2023-03-28T03:08:18.777Z,753.16
2023-03-28T03:09:18.771Z,747.25
2023-03-28T03:10:18.763Z,746.10
2023-03-28T03:11:18.795Z,750.45
2023-03-28T03:12:18.751Z,747.77
2023-03-28T03:13:18.742Z,752.98
2023-03-28T03:14:18.718Z,744.69
2023-03-28T03:15:18.722Z,739.13
2023-03-28T03:16:18.782Z,738.12
2023-03-28T03:17:18.682Z,737.17
2023-03-28T03:18:18.688Z,740.84
2023-03-28T03:19:18.662Z,740.28
2023-03-28T03:20:18.654Z,736.60
2023-03-28T03:21:18.638Z,729.79
2023-03-28T03:22:21.277Z,734.30
2023-03-28T03:23:18.608Z,735.51
2023-03-28T03:24:18.639Z,740.67
2023-03-28T03:25:18.607Z,741.09
2023-03-28T03:26:18.606Z,739.32
2023-03-28T03:27:18.566Z,745.10
2023-03-28T03:28:18.583Z,739.42
2023-03-28T03:29:18.543Z,735.79
2023-03-28T03:30:18.536Z,731.99
2023-03-28T03:31:18.579Z,725.61
2023-03-28T03:32:18.940Z,727.76
2023-03-28T03:33:18.498Z,720.47
2023-03-28T03:34:18.501Z,734.58
2023-03-28T03:35:18.542Z,738.10
2023-03-28T03:36:18.467Z,736.22
2023-03-28T03:37:18.471Z,731.12
2023-03-28T03:38:18.449Z,734.95
2023-03-28T03:39:18.431Z,729.14
2023-03-28T03:40:18.445Z,730.50
2023-03-28T03:41:18.425Z,733.73
2023-03-28T03:42:18.448Z,731.46
2023-03-28T03:43:18.418Z,738.44
2023-03-28T03:44:18.380Z,739.97
2023-03-28T03:45:18.380Z,737.92
2023-03-28T03:46:18.385Z,731.67
2023-03-28T03:47:18.367Z,742.12
2023-03-28T03:48:18.340Z,735.99
2023-03-28T03:49:18.334Z,737.23
2023-03-28T03:50:18.342Z,733.72
2023-03-28T03:51:18.311Z,734.81
2023-03-28T03:52:18.305Z,748.29
2023-03-28T03:53:18.293Z,737.91
2023-03-28T03:54:18.301Z,730.26
2023-03-28T03:55:18.265Z,733.01
2023-03-28T03:56:18.246Z,726.41
2023-03-28T03:57:18.262Z,722.62
2023-03-28T03:58:18.238Z,726.52
2023-03-28T03:59:18.226Z,729.28
2023-03-28T04:00:18.205Z,724.51
2023-03-28T04:01:18.188Z,730.07
2023-03-28T04:02:18.209Z,733.56
2023-03-28T04:03:24.259Z,736.87
2023-03-28T04:04:19.210Z,745.45
2023-03-28T04:05:18.178Z,749.83
2023-03-28T04:06:18.139Z,751.65
2023-03-28T04:07:18.126Z,752.19
2023-03-28T04:08:18.152Z,743.42
2023-03-28T04:09:18.118Z,744.32
2023-03-28T04:10:18.122Z,751.16
2023-03-28T04:11:18.088Z,746.42
2023-03-28T04:12:18.095Z,737.04
2023-03-28T04:13:18.074Z,735.76
2023-03-28T04:14:18.073Z,731.48
2023-03-28T04:15:18.038Z,734.89
2023-03-28T04:16:18.087Z,731.38
2023-03-28T04:17:18.035Z,737.33
2023-03-28T04:18:18.075Z,729.30
2023-03-28T04:19:18.068Z,732.54
2023-03-28T04:20:17.992Z,734.50
2023-03-28T04:21:17.975Z,731.16
2023-03-28T04:22:17.967Z,734.44
2023-03-28T04:23:17.952Z,738.60
2023-03-28T04:24:17.976Z,741.68
2023-03-28T04:25:17.944Z,737.25
2023-03-28T04:26:17.925Z,743.58
2023-03-28T04:27:17.952Z,748.70
2023-03-28T04:28:17.900Z,749.83
2023-03-28T04:29:17.890Z,747.53
2023-03-28T04:30:18.193Z,745.71
2023-03-28T04:31:17.909Z,745.09
2023-03-28T04:32:17.878Z,739.20
2023-03-28T04:33:17.871Z,750.92
2023-03-28T04:34:17.864Z,738.22
2023-03-28T04:35:17.866Z,738.85
2023-03-28T04:36:17.823Z,737.63
2023-03-28T04:37:17.826Z,737.15
2023-03-28T04:38:20.431Z,741.08
2023-03-28T04:39:17.804Z,743.91
2023-03-28T04:40:17.916Z,740.85
2023-03-28T04:41:17.786Z,741.68
2023-03-28T04:42:17.768Z,742.17
2023-03-28T04:43:17.760Z,743.47
2023-03-28T04:44:17.746Z,748.82
2023-03-28T04:45:25.608Z,741.20
2023-03-28T04:46:17.779Z,757.32
2023-03-28T04:47:17.707Z,754.51
2023-03-28T04:48:17.702Z,754.86
2023-03-28T04:49:17.690Z,748.86
2023-03-28T04:50:17.682Z,742.80
2023-03-28T04:51:17.692Z,734.51
2023-03-28T04:52:17.672Z,733.74
2023-03-28T04:53:17.652Z,732.63
2023-03-28T04:54:17.644Z,732.10
2023-03-28T04:55:17.649Z,729.81
2023-03-28T04:56:17.610Z,731.01
2023-03-28T04:57:17.690Z,732.53
2023-03-28T04:58:17.587Z,735.49
2023-03-28T04:59:17.588Z,737.60
2023-03-28T05:00:17.569Z,745.60
2023-03-28T05:01:17.700Z,740.94
2023-03-28T05:02:17.562Z,736.40
2023-03-28T05:03:17.576Z,741.59
2023-03-28T05:04:17.537Z,736.89
2023-03-28T05:05:17.517Z,732.11
2023-03-28T05:06:17.517Z,732.29
2023-03-28T05:07:17.540Z,731.24
2023-03-28T05:08:17.489Z,731.80
2023-03-28T05:09:17.490Z,729.61
2023-03-28T05:10:17.466Z,730.63
2023-03-28T05:11:17.460Z,729.43
2023-03-28T05:12:17.430Z,723.93
2023-03-28T05:13:17.444Z,727.61
2023-03-28T05:14:17.431Z,730.01
2023-03-28T05:15:21.948Z,734.43
2023-03-28T05:16:17.416Z,730.96
2023-03-28T05:17:17.373Z,729.18
2023-03-28T05:18:17.407Z,733.59
2023-03-28T05:19:17.786Z,730.65
2023-03-28T05:20:17.370Z,738.12
2023-03-28T05:21:17.340Z,740.69
2023-03-28T05:22:17.329Z,735.96
2023-03-28T05:23:17.341Z,732.76
2023-03-28T05:24:17.308Z,734.29
2023-03-28T05:25:17.310Z,737.33
2023-03-28T05:26:17.281Z,739.75
2023-03-28T05:27:17.274Z,734.29
2023-03-28T05:28:17.257Z,738.76
2023-03-28T05:29:17.252Z,737.78
2023-03-28T05:30:17.275Z,738.80
2023-03-28T05:31:17.380Z,745.63
2023-03-28T05:32:17.228Z,750.35
2023-03-28T05:33:17.221Z,748.33
2023-03-28T05:34:17.477Z,748.08
2023-03-28T05:35:17.180Z,747.56
2023-03-28T05:36:17.233Z,743.67
2023-03-28T05:37:17.191Z,740.12
2023-03-28T05:38:17.160Z,737.68
2023-03-28T05:39:17.164Z,749.67
2023-03-28T05:40:17.138Z,746.32
2023-03-28T05:41:17.127Z,751.51
2023-03-28T05:42:17.116Z,751.70
2023-03-28T05:43:17.110Z,746.24
2023-03-28T05:44:18.707Z,744.64
2023-03-28T05:45:17.090Z,748.13
2023-03-28T05:46:17.138Z,746.89
2023-03-28T05:47:17.056Z,740.63
2023-03-28T05:48:17.065Z,736.35
2023-03-28T05:49:17.035Z,735.86
2023-03-28T05:50:17.026Z,746.74
2023-03-28T05:51:17.058Z,741.68
2023-03-28T05:52:17.018Z,737.54
2023-03-28T05:53:17.016Z,741.53
2023-03-28T05:54:16.995Z,740.38
2023-03-28T05:55:17.098Z,732.52
2023-03-28T05:56:16.970Z,731.15
2023-03-28T05:57:17.233Z,726.47
2023-03-28T05:58:16.999Z,728.34
2023-03-28T05:59:16.966Z,738.59
2023-03-28T06:00:16.935Z,745.33
2023-03-28T06:01:16.906Z,744.21
2023-03-28T06:02:16.922Z,735.89
2023-03-28T06:03:17.719Z,748.01
2023-03-28T06:04:16.924Z,744.21
2023-03-28T06:05:16.889Z,741.59
2023-03-28T06:06:16.887Z,744.65
2023-03-28T06:07:18.565Z,738.50
2023-03-28T06:08:16.869Z,742.69
2023-03-28T06:09:16.824Z,743.21
2023-03-28T06:10:16.824Z,743.67
2023-03-28T06:11:16.877Z,738.89
2023-03-28T06:12:16.791Z,736.73
2023-03-28T06:13:16.771Z,741.15
2023-03-28T06:14:16.765Z,748.78
2023-03-28T06:15:16.766Z,756.52
2023-03-28T06:16:16.766Z,757.24
2023-03-28T06:17:16.794Z,751.92
2023-03-28T06:18:16.792Z,753.66
2023-03-28T06:19:18.676Z,752.72
2023-03-28T06:20:16.717Z,747.71
2023-03-28T06:21:16.689Z,754.77
2023-03-28T06:22:16.692Z,753.89
2023-03-28T06:23:16.685Z,764.92
2023-03-28T06:24:16.656Z,763.56
2023-03-28T06:25:16.640Z,750.27
2023-03-28T06:26:16.623Z,754.00
2023-03-28T06:27:16.648Z,761.19
2023-03-28T06:28:16.689Z,748.89
2023-03-28T06:29:16.622Z,744.08
2023-03-28T06:30:16.585Z,744.23
2023-03-28T06:31:16.622Z,751.23
2023-03-28T06:32:16.582Z,751.75
2023-03-28T06:33:16.582Z,745.90
2023-03-28T06:34:16.552Z,747.57
2023-03-28T06:35:16.543Z,744.42
2023-03-28T06:36:16.583Z,763.64
2023-03-28T06:37:16.508Z,757.27
2023-03-28T06:38:16.547Z,747.64
2023-03-28T06:39:16.486Z,747.68
2023-03-28T06:40:16.535Z,743.42
2023-03-28T06:41:16.502Z,745.15
2023-03-28T06:42:16.446Z,747.38
2023-03-28T06:43:16.459Z,743.61
2023-03-28T06:44:16.427Z,751.25
2023-03-28T06:45:16.423Z,748.10
2023-03-28T06:46:24.045Z,747.71
2023-03-28T06:47:16.400Z,756.89
2023-03-28T06:48:16.397Z,757.89
2023-03-28T06:49:16.381Z,764.27
2023-03-28T06:50:16.359Z,766.32
2023-03-28T06:51:16.352Z,761.61
2023-03-28T06:52:16.342Z,762.29
2023-03-28T06:53:16.720Z,754.44
2023-03-28T06:54:16.317Z,743.14
2023-03-28T06:55:16.309Z,734.05
2023-03-28T06:56:16.306Z,731.68
2023-03-28T06:57:16.321Z,740.70
2023-03-28T06:58:16.292Z,738.82
2023-03-28T06:59:16.290Z,737.34
2023-03-28T07:00:16.253Z,741.57
2023-03-28T07:01:16.273Z,740.91
2023-03-28T07:02:16.340Z,746.37
2023-03-28T07:03:16.458Z,739.26
2023-03-28T07:04:16.220Z,737.26
2023-03-28T07:05:16.235Z,748.30
2023-03-28T07:06:16.227Z,748.87
2023-03-28T07:07:16.190Z,748.22
2023-03-28T07:08:16.174Z,739.12
2023-03-28T07:09:16.181Z,734.74
2023-03-28T07:10:16.181Z,746.28
2023-03-28T07:11:16.151Z,748.53
2023-03-28T07:12:16.119Z,740.85
2023-03-28T07:13:16.147Z,741.02
2023-03-28T07:14:16.107Z,740.60
2023-03-28T07:15:17.750Z,744.05
2023-03-28T07:16:16.179Z,756.77
2023-03-28T07:17:16.077Z,759.51
2023-03-28T07:18:16.059Z,753.65
2023-03-28T07:19:16.061Z,738.03
2023-03-28T07:20:16.044Z,732.56
2023-03-28T07:21:16.064Z,730.99
2023-03-28T07:22:16.013Z,740.05
2023-03-28T07:23:16.032Z,748.91
2023-03-28T07:24:16.018Z,744.57
2023-03-28T07:25:15.992Z,743.13
2023-03-28T07:26:15.988Z,742.50
2023-03-28T07:27:16.862Z,733.56
2023-03-28T07:28:15.961Z,739.75
2023-03-28T07:29:15.943Z,744.65
2023-03-28T07:30:16.112Z,737.43
2023-03-28T07:31:16.738Z,744.43
2023-03-28T07:32:15.932Z,747.16
2023-03-28T07:33:23.444Z,747.24
2023-03-28T07:34:16.980Z,751.68
2023-03-28T07:35:16.057Z,745.15
2023-03-28T07:36:15.949Z,748.83
2023-03-28T07:37:16.461Z,749.14
2023-03-28T07:38:15.876Z,748.97
2023-03-28T07:39:15.891Z,737.34
2023-03-28T07:40:15.839Z,733.56
2023-03-28T07:41:15.830Z,739.71
2023-03-28T07:42:15.866Z,743.94
2023-03-28T07:43:15.812Z,741.60
2023-03-28T07:44:16.012Z,735.73
2023-03-28T07:45:15.769Z,736.07
2023-03-28T07:46:15.793Z,733.17
2023-03-28T07:47:15.777Z,745.56
2023-03-28T07:48:15.754Z,745.18
2023-03-28T07:49:18.966Z,744.33
2023-03-28T07:50:16.521Z,755.53
2023-03-28T07:51:15.748Z,749.73
2023-03-28T07:52:15.714Z,749.65
2023-03-28T07:53:15.725Z,738.31
2023-03-28T07:54:15.675Z,739.01
2023-03-28T07:55:15.711Z,738.11
2023-03-28T07:56:15.644Z,740.31
2023-03-28T07:57:16.578Z,747.72
2023-03-28T07:58:15.613Z,758.13
2023-03-28T07:59:15.675Z,744.13
2023-03-28T08:00:15.594Z,738.95
2023-03-28T08:01:15.622Z,745.85
2023-03-28T08:02:15.633Z,753.07
2023-03-28T08:03:15.677Z,752.25
2023-03-28T08:04:15.551Z,749.21
2023-03-28T08:05:15.626Z,746.92
2023-03-28T08:06:29.168Z,737.32
2023-03-28T08:07:15.554Z,736.56
2023-03-28T08:08:15.532Z,747.42
2023-03-28T08:09:15.532Z,758.41
2023-03-28T08:10:15.563Z,756.18
2023-03-28T08:11:15.484Z,764.70
2023-03-28T08:12:15.540Z,756.34
2023-03-28T08:13:15.582Z,743.69
2023-03-28T08:14:15.478Z,750.50
2023-03-28T08:15:15.451Z,753.83
2023-03-28T08:16:15.455Z,747.60
2023-03-28T08:17:15.431Z,750.56
2023-03-28T08:18:15.450Z,751.53
2023-03-28T08:19:15.410Z,746.69
2023-03-28T08:20:15.402Z,745.96
2023-03-28T08:21:15.395Z,734.60
2023-03-28T08:22:15.361Z,740.89
2023-03-28T08:23:15.451Z,744.14
2023-03-28T08:24:22.286Z,744.05
2023-03-28T08:25:15.325Z,758.99
2023-03-28T08:26:15.380Z,755.60
2023-03-28T08:27:15.612Z,752.91
2023-03-28T08:28:15.288Z,750.72
2023-03-28T08:29:15.300Z,747.06
2023-03-28T08:30:15.293Z,755.60
2023-03-28T08:31:15.371Z,752.67
2023-03-28T08:32:15.272Z,762.46
2023-03-28T08:33:15.340Z,756.95
2023-03-28T08:34:15.223Z,759.22
2023-03-28T08:35:15.272Z,754.49
2023-03-28T08:36:15.275Z,744.58
2023-03-28T08:37:15.209Z,743.13
2023-03-28T08:38:15.191Z,747.20
2023-03-28T08:39:15.229Z,743.65
2023-03-28T08:40:15.163Z,744.98
2023-03-28T08:41:15.175Z,758.56
2023-03-28T08:42:15.155Z,756.34
2023-03-28T08:43:15.342Z,754.10
2023-03-28T08:44:15.173Z,763.90
2023-03-28T08:45:15.125Z,768.80
2023-03-28T08:46:15.174Z,765.16
2023-03-28T08:47:22.700Z,741.20
2023-03-28T08:48:15.086Z,755.64
2023-03-28T08:49:15.165Z,763.80
2023-03-28T08:50:15.111Z,763.39
2023-03-28T08:51:15.066Z,755.50
2023-03-28T08:52:15.059Z,751.06
2023-03-28T08:53:15.023Z,747.28
2023-03-28T08:54:15.005Z,747.13
2023-03-28T08:55:14.994Z,748.17
2023-03-28T08:56:14.980Z,753.61
2023-03-28T08:57:15.021Z,765.87
2023-03-28T08:58:15.002Z,771.06
2023-03-28T08:59:15.014Z,763.33
2023-03-28T09:00:14.972Z,757.04
2023-03-28T09:01:14.967Z,759.36
2023-03-28T09:02:15.012Z,762.60
2023-03-28T09:03:14.987Z,765.52
2023-03-28T09:04:15.030Z,766.29
2023-03-28T09:05:23.061Z,761.74
2023-03-28T09:06:14.917Z,768.36
2023-03-28T09:07:14.888Z,784.44
2023-03-28T09:08:16.158Z,784.39
2023-03-28T09:09:14.839Z,775.37
2023-03-28T09:10:14.841Z,779.19
2023-03-28T09:11:14.832Z,775.56
2023-03-28T09:12:14.807Z,774.97
2023-03-28T09:13:17.637Z,777.68
2023-03-28T09:14:14.859Z,782.36
2023-03-28T09:15:14.795Z,775.90
2023-03-28T09:16:14.896Z,784.35
2023-03-28T09:17:14.796Z,765.15
2023-03-28T09:18:14.773Z,765.54
2023-03-28T09:19:15.575Z,790.99
2023-03-28T09:20:14.717Z,780.55
2023-03-28T09:21:14.723Z,768.79
2023-03-28T09:22:15.971Z,769.26
2023-03-28T09:23:14.728Z,761.15
2023-03-28T09:24:14.676Z,773.16
2023-03-28T09:25:14.708Z,772.36
2023-03-28T09:26:14.724Z,763.60
2023-03-28T09:27:14.697Z,772.61
2023-03-28T09:28:14.636Z,783.37
2023-03-28T09:29:14.878Z,768.01
2023-03-28T09:30:14.705Z,766.78
2023-03-28T09:31:14.638Z,764.29
2023-03-28T09:32:14.729Z,778.29
2023-03-28T09:33:14.726Z,788.71
2023-03-28T09:34:14.566Z,782.47
2023-03-28T09:35:15.725Z,776.80
2023-03-28T09:36:14.630Z,785.45
2023-03-28T09:37:14.554Z,784.08
2023-03-28T09:38:15.548Z,781.51
2023-03-28T09:39:14.545Z,776.48
2023-03-28T09:40:14.590Z,770.94
2023-03-28T09:41:14.515Z,794.39
2023-03-28T09:42:14.481Z,801.31
2023-03-28T09:43:14.532Z,807.37
2023-03-28T09:44:14.476Z,802.04
2023-03-28T09:45:14.440Z,805.15
2023-03-28T09:46:15.047Z,790.14
2023-03-28T09:47:14.440Z,778.73
2023-03-28T09:48:15.158Z,777.04
2023-03-28T09:49:14.456Z,775.15
2023-03-28T09:50:14.392Z,774.34
2023-03-28T09:51:14.398Z,772.81
2023-03-28T09:52:14.399Z,787.62
2023-03-28T09:53:14.371Z,787.54
2023-03-28T09:54:14.342Z,803.52
2023-03-28T09:55:14.409Z,811.39
2023-03-28T09:56:14.317Z,795.66
2023-03-28T09:57:14.481Z,795.34
2023-03-28T09:58:14.331Z,792.77
2023-03-28T09:59:14.280Z,796.10
2023-03-28T10:00:14.297Z,809.32
2023-03-28T10:01:14.320Z,799.18
2023-03-28T10:02:14.246Z,789.66
2023-03-28T10:03:14.275Z,796.06
2023-03-28T10:04:14.244Z,787.40
2023-03-28T10:05:14.212Z,786.71
2023-03-28T10:06:14.305Z,790.73
2023-03-28T10:07:14.202Z,799.63
2023-03-28T10:08:14.209Z,807.24
2023-03-28T10:09:14.170Z,802.53
2023-03-28T10:10:14.191Z,820.81
2023-03-28T10:11:14.194Z,815.06
2023-03-28T10:12:14.163Z,805.72
2023-03-28T10:13:14.191Z,812.09
2023-03-28T10:14:14.125Z,809.43
2023-03-28T10:15:14.130Z,809.63
2023-03-28T10:16:14.155Z,811.04
2023-03-28T10:17:14.085Z,800.33
2023-03-28T10:18:14.155Z,796.70
2023-03-28T10:19:14.060Z,822.00
2023-03-28T10:20:14.087Z,826.42
2023-03-28T10:21:14.042Z,818.45
2023-03-28T10:22:14.053Z,811.17
2023-03-28T10:23:14.040Z,819.33
2023-03-28T10:24:14.070Z,819.06
2023-03-28T10:25:14.008Z,811.05
2023-03-28T10:26:14.235Z,821.75
2023-03-28T10:27:14.038Z,827.82
2023-03-28T10:28:14.067Z,812.85
2023-03-28T10:29:13.968Z,812.35
2023-03-28T10:30:13.961Z,820.32
2023-03-28T10:31:14.019Z,820.51
2023-03-28T10:32:13.915Z,817.37
2023-03-28T10:33:13.950Z,830.64
2023-03-28T10:34:13.912Z,826.14
2023-03-28T10:35:13.875Z,826.29
2023-03-28T10:36:13.932Z,821.99
2023-03-28T10:37:13.915Z,833.54
2023-03-28T10:38:13.891Z,820.14
2023-03-28T10:39:13.884Z,820.12
2023-03-28T10:40:13.938Z,799.85
2023-03-28T10:41:13.820Z,797.59
2023-03-28T10:42:13.813Z,804.48
2023-03-28T10:43:13.900Z,808.53
2023-03-28T10:44:13.786Z,790.59
2023-03-28T10:45:13.770Z,800.75
2023-03-28T10:46:13.858Z,811.75
2023-03-28T10:47:13.748Z,828.20
2023-03-28T10:48:21.725Z,818.13
2023-03-28T10:49:13.803Z,848.25
2023-03-28T10:50:13.762Z,850.41
2023-03-28T10:51:13.701Z,832.25
2023-03-28T10:52:13.714Z,816.50
2023-03-28T10:53:13.732Z,822.57
2023-03-28T10:54:13.667Z,841.62
2023-03-28T10:55:13.689Z,815.84
2023-03-28T10:56:13.654Z,797.84
2023-03-28T10:57:13.833Z,825.88
2023-03-28T10:58:13.646Z,818.92
2023-03-28T10:59:13.648Z,813.52
2023-03-28T11:00:13.624Z,828.67
2023-03-28T11:01:13.612Z,831.06
2023-03-28T11:02:13.694Z,815.12
2023-03-28T11:03:13.727Z,804.48
2023-03-28T11:04:14.535Z,800.01
2023-03-28T11:05:13.566Z,818.85
2023-03-28T11:06:13.553Z,819.98
2023-03-28T11:07:13.545Z,837.08
2023-03-28T11:08:13.540Z,838.70
2023-03-28T11:09:13.533Z,839.65
2023-03-28T11:10:13.501Z,831.06
2023-03-28T11:11:13.526Z,820.94
2023-03-28T11:12:23.061Z,813.77
2023-03-28T11:13:14.475Z,824.58
2023-03-28T11:14:13.458Z,832.53
2023-03-28T11:15:13.498Z,822.72
2023-03-28T11:16:13.483Z,803.64
2023-03-28T11:17:13.427Z,818.21
2023-03-28T11:18:13.446Z,819.10
2023-03-28T11:19:13.490Z,796.35
2023-03-28T11:20:13.495Z,777.19
2023-03-28T11:21:13.383Z,775.30
2023-03-28T11:22:13.376Z,765.61
2023-03-28T11:23:13.371Z,768.08
2023-03-28T11:24:13.337Z,791.85
2023-03-28T11:25:13.345Z,811.89
2023-03-28T11:26:13.337Z,804.68
2023-03-28T11:27:16.309Z,820.66
2023-03-28T11:28:13.294Z,804.64
2023-03-28T11:29:13.296Z,796.29
2023-03-28T11:30:13.333Z,804.88
2023-03-28T11:31:13.427Z,829.62
2023-03-28T11:32:13.255Z,806.17
2023-03-28T11:33:13.272Z,810.54
2023-03-28T11:34:13.224Z,829.07
2023-03-28T11:35:13.214Z,837.23
2023-03-28T11:36:13.219Z,831.57
2023-03-28T11:37:13.202Z,813.29
2023-03-28T11:38:13.197Z,793.30
2023-03-28T11:39:13.181Z,784.72
2023-03-28T11:40:13.185Z,763.36
2023-03-28T11:41:13.208Z,766.15
2023-03-28T11:42:13.147Z,782.19
2023-03-28T11:43:13.129Z,787.20
2023-03-28T11:44:13.116Z,793.18
2023-03-28T11:45:13.106Z,806.16
2023-03-28T11:46:13.139Z,833.37
2023-03-28T11:47:13.100Z,834.74
2023-03-28T11:48:13.105Z,820.58
2023-03-28T11:49:13.080Z,826.70
2023-03-28T11:50:13.136Z,822.14
2023-03-28T11:51:13.040Z,818.36
2023-03-28T11:52:13.064Z,830.18
2023-03-28T11:53:13.016Z,830.72
2023-03-28T11:54:13.006Z,813.99
2023-03-28T11:55:14.924Z,799.17
2023-03-28T11:56:13.010Z,807.21
2023-03-28T11:57:13.051Z,805.07
2023-03-28T11:58:12.962Z,806.03
2023-03-28T11:59:12.964Z,826.54
2023-03-28T12:00:23.018Z,838.48
2023-03-28T12:01:12.983Z,818.45
2023-03-28T12:02:12.982Z,819.64
2023-03-28T12:03:13.069Z,812.78
2023-03-28T12:04:12.960Z,799.81
2023-03-28T12:05:12.885Z,778.33
2023-03-28T12:06:12.889Z,798.43
2023-03-28T12:07:12.904Z,834.92
2023-03-28T12:08:12.868Z,818.78
2023-03-28T12:09:12.842Z,795.38
2023-03-28T12:10:12.902Z,779.47
2023-03-28T12:11:12.839Z,783.95
2023-03-28T12:12:12.824Z,798.28
2023-03-28T12:13:12.826Z,800.27
2023-03-28T12:14:12.928Z,794.38
2023-03-28T12:15:12.820Z,789.59
2023-03-28T12:16:12.832Z,788.68
2023-03-28T12:17:12.797Z,776.94
2023-03-28T12:18:12.761Z,765.14
2023-03-28T12:19:12.748Z,766.39
2023-03-28T12:20:12.735Z,807.35
2023-03-28T12:21:12.772Z,800.20
2023-03-28T12:22:12.714Z,787.17
2023-03-28T12:23:12.745Z,792.51
2023-03-28T12:24:12.671Z,802.65
2023-03-28T12:25:12.686Z,794.23
2023-03-28T12:26:12.662Z,783.95
2023-03-28T12:27:12.650Z,789.85
2023-03-28T12:28:12.660Z,798.19